sensor_id;sensor_type;location;lat;lon;timestamp;temperature;humidity
33077;DHT22;38790;51.964;5.924;2022-11-18T00:00:54;7.60;99.90
33077;DHT22;38790;51.964;5.924;2022-11-18T00:03:20;7.50;99.90
33077;DHT22;38790;51.964;5.924;2022-11-18T00:05:56;7.50;99.90
33077;DHT22;38790;51.964;5.924;2022-11-18T00:08:24;7.50;99.90
33077;DHT22;38790;51.964;5.924;2022-11-18T00:10:51;7.50;99.90
33077;DHT22;38790;51.964;5.924;2022-11-18T00:13:18;7.50;99.90
33077;DHT22;38790;51.964;5.924;2022-11-18T00:16:08;7.60;99.90
33077;DHT22;38790;51.964;5.924;2022-11-18T00:18:35;7.60;99.90
33077;DHT22;38790;51.964;5.924;2022-11-18T00:21:07;7.60;99.90
33077;DHT22;38790;51.964;5.924;2022-11-18T00:23:34;7.70;99.90
33077;DHT22;38790;51.964;5.924;2022-11-18T00:26:09;7.60;99.90
33077;DHT22;38790;51.964;5.924;2022-11-18T00:28:35;7.60;99.90
33077;DHT22;38790;51.964;5.924;2022-11-18T00:31:12;7.60;99.90
33077;DHT22;38790;51.964;5.924;2022-11-18T00:33:39;7.50;99.90
33077;DHT22;38790;51.964;5.924;2022-11-18T00:36:09;7.50;99.90
33077;DHT22;38790;51.964;5.924;2022-11-18T00:38:36;7.40;99.90
33077;DHT22;38790;51.964;5.924;2022-11-18T00:41:08;7.50;99.90
33077;DHT22;38790;51.964;5.924;2022-11-18T00:43:35;7.40;99.90
33077;DHT22;38790;51.964;5.924;2022-11-18T00:46:02;7.50;99.90
33077;DHT22;38790;51.964;5.924;2022-11-18T00:48:28;7.50;99.90
33077;DHT22;38790;51.964;5.924;2022-11-18T00:50:57;7.40;99.90
33077;DHT22;38790;51.964;5.924;2022-11-18T00:53:25;7.40;99.90
33077;DHT22;38790;51.964;5.924;2022-11-18T00:55:52;7.40;99.90
33077;DHT22;38790;51.964;5.924;2022-11-18T00:58:18;7.30;99.90
33077;DHT22;38790;51.964;5.924;2022-11-18T01:00:46;7.40;99.90
33077;DHT22;38790;51.964;5.924;2022-11-18T01:03:14;7.40;99.90
33077;DHT22;38790;51.964;5.924;2022-11-18T01:05:41;7.40;99.90
33077;DHT22;38790;51.964;5.924;2022-11-18T01:08:09;7.40;99.90
33077;DHT22;38790;51.964;5.924;2022-11-18T01:10:36;7.40;99.90
33077;DHT22;38790;51.964;5.924;2022-11-18T01:13:04;7.30;99.90
33077;DHT22;38790;51.964;5.924;2022-11-18T01:15:55;7.30;99.90
33077;DHT22;38790;51.964;5.924;2022-11-18T01:18:24;7.20;99.90
33077;DHT22;38790;51.964;5.924;2022-11-18T01:20:51;7.20;99.90
33077;DHT22;38790;51.964;5.924;2022-11-18T01:23:18;7.20;99.90
33077;DHT22;38790;51.964;5.924;2022-11-18T01:25:46;7.10;99.90
33077;DHT22;38790;51.964;5.924;2022-11-18T01:28:13;7.20;99.90
33077;DHT22;38790;51.964;5.924;2022-11-18T01:30:40;7.30;99.90
33077;DHT22;38790;51.964;5.924;2022-11-18T01:33:07;7.30;99.90
33077;DHT22;38790;51.964;5.924;2022-11-18T01:35:38;7.30;99.90
33077;DHT22;38790;51.964;5.924;2022-11-18T01:38:05;7.40;99.90
33077;DHT22;38790;51.964;5.924;2022-11-18T01:40:32;7.40;99.90
33077;DHT22;38790;51.964;5.924;2022-11-18T01:42:59;7.40;99.90
33077;DHT22;38790;51.964;5.924;2022-11-18T01:47:58;7.50;99.90
33077;DHT22;38790;51.964;5.924;2022-11-18T01:50:27;7.40;99.90
33077;DHT22;38790;51.964;5.924;2022-11-18T01:52:58;7.40;99.90
33077;DHT22;38790;51.964;5.924;2022-11-18T01:55:30;7.50;99.90
33077;DHT22;38790;51.964;5.924;2022-11-18T01:58:06;7.50;99.90
33077;DHT22;38790;51.964;5.924;2022-11-18T02:00:34;7.50;99.90
33077;DHT22;38790;51.964;5.924;2022-11-18T02:03:01;7.50;99.90
33077;DHT22;38790;51.964;5.924;2022-11-18T02:05:29;7.60;99.90
33077;DHT22;38790;51.964;5.924;2022-11-18T02:07:59;7.60;99.90
33077;DHT22;38790;51.964;5.924;2022-11-18T02:10:26;7.60;99.90
33077;DHT22;38790;51.964;5.924;2022-11-18T02:12:53;7.60;99.90
33077;DHT22;38790;51.964;5.924;2022-11-18T02:16:00;7.70;99.90
33077;DHT22;38790;51.964;5.924;2022-11-18T02:18:58;7.60;99.90
33077;DHT22;38790;51.964;5.924;2022-11-18T02:30:03;7.60;99.90
33077;DHT22;38790;51.964;5.924;2022-11-18T02:35:22;7.50;99.90
33077;DHT22;38790;51.964;5.924;2022-11-18T02:37:56;7.60;99.90
33077;DHT22;38790;51.964;5.924;2022-11-18T02:40:33;7.50;99.90
33077;DHT22;38790;51.964;5.924;2022-11-18T02:43:07;7.50;99.90
33077;DHT22;38790;51.964;5.924;2022-11-18T02:45:34;7.50;99.90
33077;DHT22;38790;51.964;5.924;2022-11-18T02:48:05;7.50;99.90
33077;DHT22;38790;51.964;5.924;2022-11-18T02:50:34;7.40;99.90
33077;DHT22;38790;51.964;5.924;2022-11-18T02:53:04;7.30;99.90
33077;DHT22;38790;51.964;5.924;2022-11-18T02:55:34;7.20;99.90
33077;DHT22;38790;51.964;5.924;2022-11-18T02:58:02;7.10;99.90
33077;DHT22;38790;51.964;5.924;2022-11-18T03:00:30;7.10;99.90
33077;DHT22;38790;51.964;5.924;2022-11-18T03:02:56;7.20;99.90
33077;DHT22;38790;51.964;5.924;2022-11-18T03:05:35;7.20;99.90
33077;DHT22;38790;51.964;5.924;2022-11-18T03:08:09;7.20;99.90
33077;DHT22;38790;51.964;5.924;2022-11-18T03:10:44;7.20;99.90
33077;DHT22;38790;51.964;5.924;2022-11-18T03:13:23;7.30;99.90
33077;DHT22;38790;51.964;5.924;2022-11-18T03:16:00;7.30;99.90
33077;DHT22;38790;51.964;5.924;2022-11-18T03:21:14;7.30;99.90
33077;DHT22;38790;51.964;5.924;2022-11-18T03:23:43;7.30;99.90
33077;DHT22;38790;51.964;5.924;2022-11-18T03:26:20;7.30;99.90
33077;DHT22;38790;51.964;5.924;2022-11-18T03:31:44;7.40;99.90
33077;DHT22;38790;51.964;5.924;2022-11-18T03:37:01;7.50;99.90
33077;DHT22;38790;51.964;5.924;2022-11-18T03:39:31;7.50;99.90
33077;DHT22;38790;51.964;5.924;2022-11-18T03:42:11;7.60;99.90
33077;DHT22;38790;51.964;5.924;2022-11-18T03:44:42;7.60;99.90
33077;DHT22;38790;51.964;5.924;2022-11-18T03:47:16;7.60;99.90
33077;DHT22;38790;51.964;5.924;2022-11-18T03:49:57;7.60;99.90
33077;DHT22;38790;51.964;5.924;2022-11-18T03:52:27;7.60;99.90
33077;DHT22;38790;51.964;5.924;2022-11-18T03:54:57;7.60;99.90
33077;DHT22;38790;51.964;5.924;2022-11-18T03:57:49;7.60;99.90
33077;DHT22;38790;51.964;5.924;2022-11-18T04:00:14;7.60;99.90
33077;DHT22;38790;51.964;5.924;2022-11-18T04:02:41;7.60;99.90
33077;DHT22;38790;51.964;5.924;2022-11-18T04:05:09;7.60;99.90
33077;DHT22;38790;51.964;5.924;2022-11-18T04:07:56;7.60;99.90
33077;DHT22;38790;51.964;5.924;2022-11-18T04:10:49;7.60;99.90
33077;DHT22;38790;51.964;5.924;2022-11-18T04:13:23;7.60;99.90
33077;DHT22;38790;51.964;5.924;2022-11-18T04:15:50;7.60;99.90
33077;DHT22;38790;51.964;5.924;2022-11-18T04:18:16;7.50;99.90
33077;DHT22;38790;51.964;5.924;2022-11-18T04:20:42;7.60;99.90
33077;DHT22;38790;51.964;5.924;2022-11-18T04:23:08;7.50;99.90
33077;DHT22;38790;51.964;5.924;2022-11-18T04:25:34;7.60;99.90
33077;DHT22;38790;51.964;5.924;2022-11-18T04:28:01;7.50;99.90
33077;DHT22;38790;51.964;5.924;2022-11-18T04:30:27;7.50;99.90
33077;DHT22;38790;51.964;5.924;2022-11-18T04:32:53;7.60;99.90
33077;DHT22;38790;51.964;5.924;2022-11-18T04:35:19;7.60;99.90
33077;DHT22;38790;51.964;5.924;2022-11-18T04:37:46;7.60;99.90
33077;DHT22;38790;51.964;5.924;2022-11-18T04:40:12;7.60;99.90
33077;DHT22;38790;51.964;5.924;2022-11-18T04:42:38;7.60;99.90
33077;DHT22;38790;51.964;5.924;2022-11-18T04:45:05;7.60;99.90
33077;DHT22;38790;51.964;5.924;2022-11-18T04:47:32;7.70;99.90
33077;DHT22;38790;51.964;5.924;2022-11-18T04:49:58;7.70;99.90
33077;DHT22;38790;51.964;5.924;2022-11-18T04:52:24;7.80;99.90
33077;DHT22;38790;51.964;5.924;2022-11-18T04:54:50;7.80;99.90
33077;DHT22;38790;51.964;5.924;2022-11-18T04:57:16;7.80;99.90
33077;DHT22;38790;51.964;5.924;2022-11-18T04:59:43;7.80;99.90
33077;DHT22;38790;51.964;5.924;2022-11-18T05:02:09;7.80;99.90
33077;DHT22;38790;51.964;5.924;2022-11-18T05:04:35;7.80;99.90
33077;DHT22;38790;51.964;5.924;2022-11-18T05:07:03;7.80;99.90
33077;DHT22;38790;51.964;5.924;2022-11-18T05:09:30;7.80;99.90
33077;DHT22;38790;51.964;5.924;2022-11-18T05:11:56;7.80;99.90
33077;DHT22;38790;51.964;5.924;2022-11-18T05:14:41;7.80;99.90
33077;DHT22;38790;51.964;5.924;2022-11-18T05:17:08;7.80;99.90
33077;DHT22;38790;51.964;5.924;2022-11-18T05:19:38;7.80;99.90
33077;DHT22;38790;51.964;5.924;2022-11-18T05:22:06;7.80;99.90
33077;DHT22;38790;51.964;5.924;2022-11-18T05:24:32;7.80;99.90
33077;DHT22;38790;51.964;5.924;2022-11-18T05:26:58;7.80;99.90
33077;DHT22;38790;51.964;5.924;2022-11-18T05:29:25;7.80;99.90
33077;DHT22;38790;51.964;5.924;2022-11-18T05:31:51;7.80;99.90
33077;DHT22;38790;51.964;5.924;2022-11-18T05:34:18;7.80;99.90
33077;DHT22;38790;51.964;5.924;2022-11-18T05:36:44;7.80;99.90
33077;DHT22;38790;51.964;5.924;2022-11-18T05:39:11;7.80;99.90
33077;DHT22;38790;51.964;5.924;2022-11-18T05:41:37;7.70;99.90
33077;DHT22;38790;51.964;5.924;2022-11-18T05:44:21;7.70;99.90
33077;DHT22;38790;51.964;5.924;2022-11-18T05:46:47;7.70;99.90
33077;DHT22;38790;51.964;5.924;2022-11-18T05:49:13;7.60;99.90
33077;DHT22;38790;51.964;5.924;2022-11-18T05:51:40;7.60;99.90
33077;DHT22;38790;51.964;5.924;2022-11-18T05:54:08;7.60;99.90
33077;DHT22;38790;51.964;5.924;2022-11-18T05:56:37;7.60;99.90
33077;DHT22;38790;51.964;5.924;2022-11-18T05:59:04;7.50;99.90
33077;DHT22;38790;51.964;5.924;2022-11-18T06:07:06;7.50;99.90
33077;DHT22;38790;51.964;5.924;2022-11-18T06:09:37;7.40;99.90
33077;DHT22;38790;51.964;5.924;2022-11-18T06:12:05;7.40;99.90
33077;DHT22;38790;51.964;5.924;2022-11-18T06:14:41;7.40;99.90
33077;DHT22;38790;51.964;5.924;2022-11-18T06:17:13;7.40;99.90
33077;DHT22;38790;51.964;5.924;2022-11-18T06:19:40;7.40;99.90
33077;DHT22;38790;51.964;5.924;2022-11-18T06:22:07;7.40;99.90
33077;DHT22;38790;51.964;5.924;2022-11-18T06:24:35;7.30;99.90
33077;DHT22;38790;51.964;5.924;2022-11-18T06:27:02;7.30;99.90
33077;DHT22;38790;51.964;5.924;2022-11-18T06:29:30;7.20;99.90
33077;DHT22;38790;51.964;5.924;2022-11-18T06:31:56;7.20;99.90
33077;DHT22;38790;51.964;5.924;2022-11-18T06:34:22;7.30;99.90
33077;DHT22;38790;51.964;5.924;2022-11-18T06:36:48;7.20;99.90
33077;DHT22;38790;51.964;5.924;2022-11-18T06:39:14;7.20;99.90
33077;DHT22;38790;51.964;5.924;2022-11-18T06:41:40;7.10;99.90
33077;DHT22;38790;51.964;5.924;2022-11-18T06:44:07;7.00;99.90
33077;DHT22;38790;51.964;5.924;2022-11-18T06:46:33;6.90;99.90
33077;DHT22;38790;51.964;5.924;2022-11-18T06:49:17;6.90;99.90
33077;DHT22;38790;51.964;5.924;2022-11-18T06:51:43;7.00;99.90
33077;DHT22;38790;51.964;5.924;2022-11-18T06:54:09;7.00;99.90
33077;DHT22;38790;51.964;5.924;2022-11-18T06:56:36;7.00;99.90
33077;DHT22;38790;51.964;5.924;2022-11-18T06:59:02;7.00;99.90
33077;DHT22;38790;51.964;5.924;2022-11-18T07:01:30;6.90;99.90
33077;DHT22;38790;51.964;5.924;2022-11-18T07:03:58;6.80;99.90
33077;DHT22;38790;51.964;5.924;2022-11-18T07:06:26;6.90;99.90
33077;DHT22;38790;51.964;5.924;2022-11-18T07:08:53;6.80;99.90
33077;DHT22;38790;51.964;5.924;2022-11-18T07:11:22;6.70;99.90
33077;DHT22;38790;51.964;5.924;2022-11-18T07:13:49;6.70;99.90
33077;DHT22;38790;51.964;5.924;2022-11-18T07:16:19;6.60;99.90
33077;DHT22;38790;51.964;5.924;2022-11-18T07:18:47;6.60;99.90
33077;DHT22;38790;51.964;5.924;2022-11-18T07:21:19;6.50;99.90
33077;DHT22;38790;51.964;5.924;2022-11-18T07:23:46;6.60;99.90
33077;DHT22;38790;51.964;5.924;2022-11-18T07:26:13;6.60;99.90
33077;DHT22;38790;51.964;5.924;2022-11-18T07:28:40;6.60;99.90
33077;DHT22;38790;51.964;5.924;2022-11-18T07:31:11;6.70;99.90
33077;DHT22;38790;51.964;5.924;2022-11-18T07:33:39;6.70;99.90
33077;DHT22;38790;51.964;5.924;2022-11-18T07:36:11;6.70;99.90
33077;DHT22;38790;51.964;5.924;2022-11-18T07:38:38;6.70;99.90
33077;DHT22;38790;51.964;5.924;2022-11-18T07:43:41;6.80;99.90
33077;DHT22;38790;51.964;5.924;2022-11-18T07:46:09;6.80;99.90
33077;DHT22;38790;51.964;5.924;2022-11-18T07:48:35;6.80;99.90
33077;DHT22;38790;51.964;5.924;2022-11-18T07:51:02;6.80;99.90
33077;DHT22;38790;51.964;5.924;2022-11-18T07:53:32;6.80;99.90
33077;DHT22;38790;51.964;5.924;2022-11-18T07:55:59;6.70;99.90
33077;DHT22;38790;51.964;5.924;2022-11-18T07:58:26;6.70;99.90
33077;DHT22;38790;51.964;5.924;2022-11-18T08:00:52;6.70;99.90
33077;DHT22;38790;51.964;5.924;2022-11-18T08:03:18;6.70;99.90
33077;DHT22;38790;51.964;5.924;2022-11-18T08:05:44;6.70;99.90
33077;DHT22;38790;51.964;5.924;2022-11-18T08:08:11;6.70;99.90
33077;DHT22;38790;51.964;5.924;2022-11-18T08:10:37;6.70;99.90
33077;DHT22;38790;51.964;5.924;2022-11-18T08:13:03;6.70;99.90
33077;DHT22;38790;51.964;5.924;2022-11-18T08:15:29;6.60;99.90
33077;DHT22;38790;51.964;5.924;2022-11-18T08:17:55;6.70;99.90
33077;DHT22;38790;51.964;5.924;2022-11-18T08:20:21;6.70;99.90
33077;DHT22;38790;51.964;5.924;2022-11-18T08:22:52;6.70;99.90
33077;DHT22;38790;51.964;5.924;2022-11-18T08:25:18;6.70;99.90
33077;DHT22;38790;51.964;5.924;2022-11-18T08:27:44;6.80;99.90
33077;DHT22;38790;51.964;5.924;2022-11-18T08:30:11;6.90;99.90
33077;DHT22;38790;51.964;5.924;2022-11-18T08:32:37;6.90;99.90
33077;DHT22;38790;51.964;5.924;2022-11-18T08:35:03;7.00;99.90
33077;DHT22;38790;51.964;5.924;2022-11-18T08:37:30;7.00;99.90
33077;DHT22;38790;51.964;5.924;2022-11-18T08:39:56;7.10;99.90
33077;DHT22;38790;51.964;5.924;2022-11-18T08:42:22;7.20;99.90
33077;DHT22;38790;51.964;5.924;2022-11-18T08:44:50;7.30;99.90
33077;DHT22;38790;51.964;5.924;2022-11-18T08:47:16;7.30;99.90
33077;DHT22;38790;51.964;5.924;2022-11-18T08:49:43;7.40;99.90
33077;DHT22;38790;51.964;5.924;2022-11-18T08:52:09;7.40;99.90
33077;DHT22;38790;51.964;5.924;2022-11-18T08:54:35;7.50;99.90
33077;DHT22;38790;51.964;5.924;2022-11-18T08:57:01;7.50;99.90
33077;DHT22;38790;51.964;5.924;2022-11-18T08:59:27;7.40;99.90
33077;DHT22;38790;51.964;5.924;2022-11-18T09:01:53;7.40;99.90
33077;DHT22;38790;51.964;5.924;2022-11-18T09:04:20;7.40;99.90
33077;DHT22;38790;51.964;5.924;2022-11-18T09:06:46;7.50;99.90
33077;DHT22;38790;51.964;5.924;2022-11-18T09:09:12;7.50;99.90
33077;DHT22;38790;51.964;5.924;2022-11-18T09:11:38;7.70;99.90
33077;DHT22;38790;51.964;5.924;2022-11-18T09:14:05;7.90;99.90
33077;DHT22;38790;51.964;5.924;2022-11-18T09:16:32;8.00;99.90
33077;DHT22;38790;51.964;5.924;2022-11-18T09:18:59;8.20;99.90
33077;DHT22;38790;51.964;5.924;2022-11-18T09:21:26;8.30;99.90
33077;DHT22;38790;51.964;5.924;2022-11-18T09:23:52;8.40;99.90
33077;DHT22;38790;51.964;5.924;2022-11-18T09:26:21;8.60;99.90
33077;DHT22;38790;51.964;5.924;2022-11-18T09:28:51;8.60;99.90
33077;DHT22;38790;51.964;5.924;2022-11-18T09:31:18;8.70;99.90
33077;DHT22;38790;51.964;5.924;2022-11-18T09:33:44;8.80;99.90
33077;DHT22;38790;51.964;5.924;2022-11-18T09:36:21;8.80;99.90
33077;DHT22;38790;51.964;5.924;2022-11-18T09:38:48;8.80;99.90
33077;DHT22;38790;51.964;5.924;2022-11-18T09:41:47;8.90;99.90
33077;DHT22;38790;51.964;5.924;2022-11-18T09:46:49;9.20;99.90
33077;DHT22;38790;51.964;5.924;2022-11-18T09:49:36;9.30;99.90
33077;DHT22;38790;51.964;5.924;2022-11-18T09:54:46;9.40;99.90
33077;DHT22;38790;51.964;5.924;2022-11-18T09:59:43;9.70;99.90
33077;DHT22;38790;51.964;5.924;2022-11-18T10:04:39;9.80;99.90
33077;DHT22;38790;51.964;5.924;2022-11-18T10:07:14;9.80;99.90
33077;DHT22;38790;51.964;5.924;2022-11-18T10:09:41;9.70;99.90
33077;DHT22;38790;51.964;5.924;2022-11-18T10:17:48;9.70;99.90
33077;DHT22;38790;51.964;5.924;2022-11-18T10:20:20;9.60;99.90
33077;DHT22;38790;51.964;5.924;2022-11-18T10:25:42;9.50;99.90
33077;DHT22;38790;51.964;5.924;2022-11-18T10:28:27;9.50;99.90
33077;DHT22;38790;51.964;5.924;2022-11-18T10:31:06;9.40;99.90
33077;DHT22;38790;51.964;5.924;2022-11-18T10:33:33;9.30;99.90
33077;DHT22;38790;51.964;5.924;2022-11-18T10:36:30;9.30;99.90
33077;DHT22;38790;51.964;5.924;2022-11-18T10:39:13;9.20;99.90
33077;DHT22;38790;51.964;5.924;2022-11-18T10:41:50;9.30;99.90
33077;DHT22;38790;51.964;5.924;2022-11-18T10:44:38;9.30;99.90
33077;DHT22;38790;51.964;5.924;2022-11-18T10:47:28;9.30;99.90
33077;DHT22;38790;51.964;5.924;2022-11-18T10:49:56;9.50;99.90
33077;DHT22;38790;51.964;5.924;2022-11-18T10:52:23;9.70;99.90
33077;DHT22;38790;51.964;5.924;2022-11-18T10:55:25;9.80;99.90
33077;DHT22;38790;51.964;5.924;2022-11-18T10:57:56;9.90;99.90
33077;DHT22;38790;51.964;5.924;2022-11-18T11:00:32;9.80;99.90
33077;DHT22;38790;51.964;5.924;2022-11-18T11:03:00;9.80;99.90
33077;DHT22;38790;51.964;5.924;2022-11-18T11:05:26;9.80;99.90
33077;DHT22;38790;51.964;5.924;2022-11-18T11:08:18;9.80;99.90
33077;DHT22;38790;51.964;5.924;2022-11-18T11:10:55;9.80;99.90
33077;DHT22;38790;51.964;5.924;2022-11-18T11:13:24;9.90;99.90
33077;DHT22;38790;51.964;5.924;2022-11-18T11:15:55;10.00;99.90
33077;DHT22;38790;51.964;5.924;2022-11-18T11:18:33;10.10;99.90
33077;DHT22;38790;51.964;5.924;2022-11-18T11:21:20;10.10;99.90
33077;DHT22;38790;51.964;5.924;2022-11-18T11:23:50;10.20;99.90
33077;DHT22;38790;51.964;5.924;2022-11-18T11:26:33;10.20;99.90
33077;DHT22;38790;51.964;5.924;2022-11-18T11:34:49;10.30;99.90
33077;DHT22;38790;51.964;5.924;2022-11-18T11:43:18;10.50;99.90
33077;DHT22;38790;51.964;5.924;2022-11-18T11:48:59;10.50;99.90
33077;DHT22;38790;51.964;5.924;2022-11-18T11:51:43;10.50;99.90
33077;DHT22;38790;51.964;5.924;2022-11-18T11:54:36;10.50;99.90
33077;DHT22;38790;51.964;5.924;2022-11-18T11:59:59;10.10;99.90
33077;DHT22;38790;51.964;5.924;2022-11-18T12:02:43;10.00;99.90
33077;DHT22;38790;51.964;5.924;2022-11-18T12:07:50;9.90;99.90
33077;DHT22;38790;51.964;5.924;2022-11-18T12:16:04;9.80;99.90
33077;DHT22;38790;51.964;5.924;2022-11-18T12:26:47;9.60;99.90
33077;DHT22;38790;51.964;5.924;2022-11-18T12:31:49;9.70;99.90
33077;DHT22;38790;51.964;5.924;2022-11-18T12:34:41;9.90;99.90
33077;DHT22;38790;51.964;5.924;2022-11-18T12:42:41;10.30;99.90
33077;DHT22;38790;51.964;5.924;2022-11-18T12:45:50;10.40;99.90
33077;DHT22;38790;51.964;5.924;2022-11-18T12:50:56;10.50;99.90
33077;DHT22;38790;51.964;5.924;2022-11-18T12:53:43;10.50;99.90
33077;DHT22;38790;51.964;5.924;2022-11-18T12:56:22;10.50;99.90
33077;DHT22;38790;51.964;5.924;2022-11-18T12:58:51;10.40;99.90
33077;DHT22;38790;51.964;5.924;2022-11-18T13:01:21;10.40;99.90
33077;DHT22;38790;51.964;5.924;2022-11-18T13:03:48;10.40;99.90
33077;DHT22;38790;51.964;5.924;2022-11-18T13:06:24;10.40;99.90
33077;DHT22;38790;51.964;5.924;2022-11-18T13:08:54;10.40;99.90
33077;DHT22;38790;51.964;5.924;2022-11-18T13:11:24;10.50;99.90
33077;DHT22;38790;51.964;5.924;2022-11-18T13:14:28;10.50;99.90
33077;DHT22;38790;51.964;5.924;2022-11-18T13:20:37;10.40;99.90
33077;DHT22;38790;51.964;5.924;2022-11-18T13:26:05;10.20;99.90
33077;DHT22;38790;51.964;5.924;2022-11-18T13:31:28;10.20;99.90
33077;DHT22;38790;51.964;5.924;2022-11-18T13:34:01;10.20;99.90
33077;DHT22;38790;51.964;5.924;2022-11-18T13:36:29;10.10;99.90
33077;DHT22;38790;51.964;5.924;2022-11-18T13:39:04;10.10;99.90
33077;DHT22;38790;51.964;5.924;2022-11-18T13:41:33;10.20;99.90
33077;DHT22;38790;51.964;5.924;2022-11-18T13:44:33;10.30;99.90
33077;DHT22;38790;51.964;5.924;2022-11-18T13:52:00;10.80;99.90
33077;DHT22;38790;51.964;5.924;2022-11-18T13:54:28;10.90;99.90
33077;DHT22;38790;51.964;5.924;2022-11-18T13:56:54;10.90;99.90
33077;DHT22;38790;51.964;5.924;2022-11-18T13:59:22;10.80;99.90
33077;DHT22;38790;51.964;5.924;2022-11-18T14:01:54;10.80;99.90
33077;DHT22;38790;51.964;5.924;2022-11-18T14:04:22;10.80;99.90
33077;DHT22;38790;51.964;5.924;2022-11-18T14:06:50;10.70;99.90
33077;DHT22;38790;51.964;5.924;2022-11-18T14:09:26;10.60;99.90
33077;DHT22;38790;51.964;5.924;2022-11-18T14:12:04;10.50;99.90
33077;DHT22;38790;51.964;5.924;2022-11-18T14:14:35;10.40;99.90
33077;DHT22;38790;51.964;5.924;2022-11-18T14:17:19;10.20;99.90
33077;DHT22;38790;51.964;5.924;2022-11-18T14:19:51;10.20;99.90
33077;DHT22;38790;51.964;5.924;2022-11-18T14:22:23;10.10;99.90
33077;DHT22;38790;51.964;5.924;2022-11-18T14:24:57;10.10;99.90
33077;DHT22;38790;51.964;5.924;2022-11-18T14:33:15;10.10;99.90
33077;DHT22;38790;51.964;5.924;2022-11-18T14:35:53;10.20;99.90
33077;DHT22;38790;51.964;5.924;2022-11-18T14:38:33;10.20;99.90
33077;DHT22;38790;51.964;5.924;2022-11-18T14:41:04;10.10;99.90
33077;DHT22;38790;51.964;5.924;2022-11-18T14:43:30;10.00;99.90
33077;DHT22;38790;51.964;5.924;2022-11-18T14:46:00;10.00;99.90
33077;DHT22;38790;51.964;5.924;2022-11-18T14:48:27;9.90;99.90
33077;DHT22;38790;51.964;5.924;2022-11-18T14:50:55;9.90;99.90
33077;DHT22;38790;51.964;5.924;2022-11-18T14:53:21;9.70;99.90
33077;DHT22;38790;51.964;5.924;2022-11-18T14:55:52;9.70;99.90
33077;DHT22;38790;51.964;5.924;2022-11-18T14:58:19;9.60;99.90
33077;DHT22;38790;51.964;5.924;2022-11-18T15:00:47;9.50;99.90
33077;DHT22;38790;51.964;5.924;2022-11-18T15:03:14;9.40;99.90
33077;DHT22;38790;51.964;5.924;2022-11-18T15:05:40;9.40;99.90
33077;DHT22;38790;51.964;5.924;2022-11-18T15:08:06;9.30;99.90
33077;DHT22;38790;51.964;5.924;2022-11-18T15:10:33;9.20;99.90
33077;DHT22;38790;51.964;5.924;2022-11-18T15:13:00;9.20;99.90
33077;DHT22;38790;51.964;5.924;2022-11-18T15:15:26;9.10;99.90
33077;DHT22;38790;51.964;5.924;2022-11-18T15:17:52;9.00;99.90
33077;DHT22;38790;51.964;5.924;2022-11-18T15:20:20;9.00;99.90
33077;DHT22;38790;51.964;5.924;2022-11-18T15:22:47;9.00;99.90
33077;DHT22;38790;51.964;5.924;2022-11-18T15:25:13;8.90;99.90
33077;DHT22;38790;51.964;5.924;2022-11-18T15:27:40;8.80;99.90
33077;DHT22;38790;51.964;5.924;2022-11-18T15:30:06;8.80;99.90
33077;DHT22;38790;51.964;5.924;2022-11-18T15:32:33;8.80;99.90
33077;DHT22;38790;51.964;5.924;2022-11-18T15:34:59;8.80;99.90
33077;DHT22;38790;51.964;5.924;2022-11-18T15:37:25;8.90;99.90
33077;DHT22;38790;51.964;5.924;2022-11-18T15:39:51;8.90;99.90
33077;DHT22;38790;51.964;5.924;2022-11-18T15:42:17;8.90;99.90
33077;DHT22;38790;51.964;5.924;2022-11-18T15:44:44;9.00;99.90
33077;DHT22;38790;51.964;5.924;2022-11-18T15:47:10;8.90;99.90
33077;DHT22;38790;51.964;5.924;2022-11-18T15:49:37;8.80;99.90
33077;DHT22;38790;51.964;5.924;2022-11-18T15:52:11;8.80;99.90
33077;DHT22;38790;51.964;5.924;2022-11-18T15:54:37;8.70;99.90
33077;DHT22;38790;51.964;5.924;2022-11-18T15:57:04;8.50;99.90
33077;DHT22;38790;51.964;5.924;2022-11-18T15:59:30;8.40;99.90
33077;DHT22;38790;51.964;5.924;2022-11-18T16:01:56;8.40;99.90
33077;DHT22;38790;51.964;5.924;2022-11-18T16:04:23;8.20;99.90
33077;DHT22;38790;51.964;5.924;2022-11-18T16:06:49;8.10;99.90
33077;DHT22;38790;51.964;5.924;2022-11-18T16:09:15;8.10;99.90
33077;DHT22;38790;51.964;5.924;2022-11-18T16:11:41;8.00;99.90
33077;DHT22;38790;51.964;5.924;2022-11-18T16:14:26;7.90;99.90
33077;DHT22;38790;51.964;5.924;2022-11-18T16:16:54;7.90;99.90
33077;DHT22;38790;51.964;5.924;2022-11-18T16:19:23;7.70;99.90
33077;DHT22;38790;51.964;5.924;2022-11-18T16:21:53;7.60;99.90
33077;DHT22;38790;51.964;5.924;2022-11-18T16:24:22;7.60;99.90
33077;DHT22;38790;51.964;5.924;2022-11-18T16:26:49;7.50;99.90
33077;DHT22;38790;51.964;5.924;2022-11-18T16:29:15;7.50;99.90
33077;DHT22;38790;51.964;5.924;2022-11-18T16:31:43;7.50;99.90
33077;DHT22;38790;51.964;5.924;2022-11-18T16:34:25;7.50;99.90
33077;DHT22;38790;51.964;5.924;2022-11-18T16:36:54;7.50;99.90
33077;DHT22;38790;51.964;5.924;2022-11-18T16:39:27;7.50;99.90
33077;DHT22;38790;51.964;5.924;2022-11-18T16:41:58;7.40;99.90
33077;DHT22;38790;51.964;5.924;2022-11-18T16:44:24;7.30;99.90
33077;DHT22;38790;51.964;5.924;2022-11-18T16:46:53;7.20;99.90
33077;DHT22;38790;51.964;5.924;2022-11-18T16:49:25;7.20;99.90
33077;DHT22;38790;51.964;5.924;2022-11-18T16:51:53;7.20;99.90
33077;DHT22;38790;51.964;5.924;2022-11-18T16:54:24;7.20;99.90
33077;DHT22;38790;51.964;5.924;2022-11-18T16:56:53;7.20;99.90
33077;DHT22;38790;51.964;5.924;2022-11-18T16:59:24;7.20;99.90
33077;DHT22;38790;51.964;5.924;2022-11-18T17:01:52;7.30;99.90
33077;DHT22;38790;51.964;5.924;2022-11-18T17:04:21;7.30;99.90
33077;DHT22;38790;51.964;5.924;2022-11-18T17:06:49;7.40;99.90
33077;DHT22;38790;51.964;5.924;2022-11-18T17:09:20;7.40;99.90
33077;DHT22;38790;51.964;5.924;2022-11-18T17:11:47;7.40;99.90
33077;DHT22;38790;51.964;5.924;2022-11-18T17:14:14;7.40;99.90
33077;DHT22;38790;51.964;5.924;2022-11-18T17:16:40;7.50;99.90
33077;DHT22;38790;51.964;5.924;2022-11-18T17:19:08;7.60;99.90
33077;DHT22;38790;51.964;5.924;2022-11-18T17:21:34;7.70;99.90
33077;DHT22;38790;51.964;5.924;2022-11-18T17:24:03;7.80;99.90
33077;DHT22;38790;51.964;5.924;2022-11-18T17:26:32;7.90;99.90
33077;DHT22;38790;51.964;5.924;2022-11-18T17:28:59;7.90;99.90
33077;DHT22;38790;51.964;5.924;2022-11-18T17:31:25;8.00;99.90
33077;DHT22;38790;51.964;5.924;2022-11-18T17:33:52;8.30;99.90
33077;DHT22;38790;51.964;5.924;2022-11-18T17:36:21;8.30;99.90
33077;DHT22;38790;51.964;5.924;2022-11-18T17:38:49;8.40;99.90
33077;DHT22;38790;51.964;5.924;2022-11-18T17:41:18;8.40;99.90
33077;DHT22;38790;51.964;5.924;2022-11-18T17:44:05;8.40;99.90
33077;DHT22;38790;51.964;5.924;2022-11-18T17:46:32;8.40;99.90
33077;DHT22;38790;51.964;5.924;2022-11-18T17:49:00;8.30;99.90
33077;DHT22;38790;51.964;5.924;2022-11-18T17:51:28;8.30;99.90
33077;DHT22;38790;51.964;5.924;2022-11-18T17:53:54;8.20;99.90
33077;DHT22;38790;51.964;5.924;2022-11-18T17:56:21;8.20;99.90
33077;DHT22;38790;51.964;5.924;2022-11-18T17:58:48;8.20;99.90